sensor_id;sensor_type;location;lat;lon;timestamp;pressure;altitude;pressure_sealevel;temperature;humidity
19096;BME280;9680;52.520;13.332;2023-05-20T00:00:01;102377.63;;;12.87;60.37
19096;BME280;9680;52.520;13.332;2023-05-20T00:02:30;102376.81;;;12.85;60.99
19096;BME280;9680;52.520;13.332;2023-05-20T00:04:59;102384.78;;;12.78;60.97
19096;BME280;9680;52.520;13.332;2023-05-20T00:07:31;102372.66;;;12.76;60.80
19096;BME280;9680;52.520;13.332;2023-05-20T00:09:58;102378.84;;;12.72;61.35
19096;BME280;9680;52.520;13.332;2023-05-20T00:12:24;102380.69;;;12.66;61.36
19096;BME280;9680;52.520;13.332;2023-05-20T00:14:51;102370.31;;;12.63;61.34
19096;BME280;9680;52.520;13.332;2023-05-20T00:17:18;102372.94;;;12.62;61.67
19096;BME280;9680;52.520;13.332;2023-05-20T00:19:45;102368.59;;;12.61;62.21
19096;BME280;9680;52.520;13.332;2023-05-20T00:22:13;102373.06;;;12.54;62.22
19096;BME280;9680;52.520;13.332;2023-05-20T00:24:40;102368.84;;;12.48;62.13
19096;BME280;9680;52.520;13.332;2023-05-20T00:27:07;102376.75;;;12.45;62.43
19096;BME280;9680;52.520;13.332;2023-05-20T00:29:33;102373.31;;;12.42;62.81
19096;BME280;9680;52.520;13.332;2023-05-20T00:32:00;102381.22;;;12.40;62.63
19096;BME280;9680;52.520;13.332;2023-05-20T00:34:27;102370.81;;;12.37;63.15
19096;BME280;9680;52.520;13.332;2023-05-20T00:36:54;102374.38;;;12.33;63.26
19096;BME280;9680;52.520;13.332;2023-05-20T00:39:22;102369.22;;;12.30;63.72
19096;BME280;9680;52.520;13.332;2023-05-20T00:41:49;102371.88;;;12.27;63.87
19096;BME280;9680;52.520;13.332;2023-05-20T00:44:15;102373.63;;;12.26;63.97
19096;BME280;9680;52.520;13.332;2023-05-20T00:46:43;102379.72;;;12.27;63.84
19096;BME280;9680;52.520;13.332;2023-05-20T00:49:12;102381.44;;;12.28;64.13
19096;BME280;9680;52.520;13.332;2023-05-20T00:51:40;102374.50;;;12.25;64.25
19096;BME280;9680;52.520;13.332;2023-05-20T00:54:06;102372.78;;;12.24;64.45
19096;BME280;9680;52.520;13.332;2023-05-20T00:56:35;102378.94;;;12.21;65.17
19096;BME280;9680;52.520;13.332;2023-05-20T00:59:03;102373.81;;;12.17;65.41
19096;BME280;9680;52.520;13.332;2023-05-20T01:01:30;102369.47;;;12.16;65.38
19096;BME280;9680;52.520;13.332;2023-05-20T01:03:58;102370.31;;;12.16;65.54
19096;BME280;9680;52.520;13.332;2023-05-20T01:06:25;102363.38;;;12.15;65.49
19096;BME280;9680;52.520;13.332;2023-05-20T01:08:52;102364.25;;;12.14;65.85
19096;BME280;9680;52.520;13.332;2023-05-20T01:11:25;102359.97;;;12.12;66.51
19096;BME280;9680;52.520;13.332;2023-05-20T01:14:00;102354.81;;;12.07;66.47
19096;BME280;9680;52.520;13.332;2023-05-20T01:16:29;102356.59;;;12.06;66.45
19096;BME280;9680;52.520;13.332;2023-05-20T01:18:58;102355.75;;;12.03;66.74
19096;BME280;9680;52.520;13.332;2023-05-20T01:21:29;102350.59;;;12.01;66.96
19096;BME280;9680;52.520;13.332;2023-05-20T01:23:58;102350.56;;;12.00;67.11
19096;BME280;9680;52.520;13.332;2023-05-20T01:26:26;102357.56;;;11.99;67.27
19096;BME280;9680;52.520;13.332;2023-05-20T01:28:53;102356.69;;;11.99;67.20
19096;BME280;9680;52.520;13.332;2023-05-20T01:31:31;102356.72;;;11.95;67.16
19096;BME280;9680;52.520;13.332;2023-05-20T01:34:04;102352.41;;;11.94;67.26
19096;BME280;9680;52.520;13.332;2023-05-20T01:36:32;102349.78;;;11.94;67.46
19096;BME280;9680;52.520;13.332;2023-05-20T01:39:01;102349.84;;;11.91;67.90
19096;BME280;9680;52.520;13.332;2023-05-20T01:41:31;102350.69;;;11.92;67.83
19096;BME280;9680;52.520;13.332;2023-05-20T01:43:59;102350.75;;;11.89;67.83
19096;BME280;9680;52.520;13.332;2023-05-20T01:46:31;102346.50;;;11.83;68.29
19096;BME280;9680;52.520;13.332;2023-05-20T01:48:58;102343.03;;;11.83;68.11
19096;BME280;9680;52.520;13.332;2023-05-20T01:51:25;102347.41;;;11.82;68.31
19096;BME280;9680;52.520;13.332;2023-05-20T01:53:52;102345.69;;;11.79;68.39
19096;BME280;9680;52.520;13.332;2023-05-20T01:56:20;102343.97;;;11.78;68.38
19096;BME280;9680;52.520;13.332;2023-05-20T01:58:48;102349.19;;;11.78;68.84
19096;BME280;9680;52.520;13.332;2023-05-20T02:01:14;102345.75;;;11.76;68.75
19096;BME280;9680;52.520;13.332;2023-05-20T02:03:42;102337.97;;;11.73;69.34
19096;BME280;9680;52.520;13.332;2023-05-20T02:06:09;102332.84;;;11.67;69.41
19096;BME280;9680;52.520;13.332;2023-05-20T02:08:36;102338.97;;;11.66;69.84
19096;BME280;9680;52.520;13.332;2023-05-20T02:11:04;102336.41;;;11.63;69.71
19096;BME280;9680;52.520;13.332;2023-05-20T02:13:32;102336.41;;;11.63;69.81
19096;BME280;9680;52.520;13.332;2023-05-20T02:15:59;102340.78;;;11.62;70.02
19096;BME280;9680;52.520;13.332;2023-05-20T02:18:26;102336.44;;;11.61;69.87
19096;BME280;9680;52.520;13.332;2023-05-20T02:20:52;102335.59;;;11.59;70.08
19096;BME280;9680;52.520;13.332;2023-05-20T02:23:19;102338.19;;;11.59;70.27
19096;BME280;9680;52.520;13.332;2023-05-20T02:25:54;102337.34;;;11.57;70.34
19096;BME280;9680;52.520;13.332;2023-05-20T02:28:36;102333.91;;;11.57;70.71
19096;BME280;9680;52.520;13.332;2023-05-20T02:31:05;102336.56;;;11.52;70.91
19096;BME280;9680;52.520;13.332;2023-05-20T02:33:49;102327.91;;;11.50;70.99
19096;BME280;9680;52.520;13.332;2023-05-20T02:36:19;102329.63;;;11.51;70.95
19096;BME280;9680;52.520;13.332;2023-05-20T02:38:46;102336.63;;;11.50;71.03
19096;BME280;9680;52.520;13.332;2023-05-20T02:41:15;102341.88;;;11.47;71.55
19096;BME280;9680;52.520;13.332;2023-05-20T02:43:59;102339.28;;;11.47;71.32
19096;BME280;9680;52.520;13.332;2023-05-20T02:46:32;102342.72;;;11.48;71.23
19096;BME280;9680;52.520;13.332;2023-05-20T02:49:00;102342.72;;;11.48;71.50
19096;BME280;9680;52.520;13.332;2023-05-20T02:51:27;102346.22;;;11.48;71.49
19096;BME280;9680;52.520;13.332;2023-05-20T02:53:56;102340.13;;;11.49;71.57
19096;BME280;9680;52.520;13.332;2023-05-20T02:56:23;102337.41;;;11.54;71.35
19096;BME280;9680;52.520;13.332;2023-05-20T02:58:49;102339.19;;;11.52;71.16
19096;BME280;9680;52.520;13.332;2023-05-20T03:01:32;102343.63;;;11.48;71.29
19096;BME280;9680;52.520;13.332;2023-05-20T03:04:37;102336.72;;;11.44;71.37
19096;BME280;9680;52.520;13.332;2023-05-20T03:07:09;102345.34;;;11.48;71.34
19096;BME280;9680;52.520;13.332;2023-05-20T03:09:39;102351.44;;;11.48;71.72
19096;BME280;9680;52.520;13.332;2023-05-20T03:12:06;102348.81;;;11.48;71.58
19096;BME280;9680;52.520;13.332;2023-05-20T03:14:33;102355.81;;;11.46;71.82
19096;BME280;9680;52.520;13.332;2023-05-20T03:17:01;102351.44;;;11.48;71.64
19096;BME280;9680;52.520;13.332;2023-05-20T03:19:27;102355.72;;;11.53;71.61
19096;BME280;9680;52.520;13.332;2023-05-20T03:21:54;102357.38;;;11.57;71.31
19096;BME280;9680;52.520;13.332;2023-05-20T03:24:23;102358.22;;;11.60;71.50
19096;BME280;9680;52.520;13.332;2023-05-20T03:26:49;102352.97;;;11.62;71.10
19096;BME280;9680;52.520;13.332;2023-05-20T03:29:16;102359.88;;;11.64;71.11
19096;BME280;9680;52.520;13.332;2023-05-20T03:31:44;102351.91;;;11.72;71.11
19096;BME280;9680;52.520;13.332;2023-05-20T03:34:12;102361.47;;;11.75;70.98
19096;BME280;9680;52.520;13.332;2023-05-20T03:36:39;102361.34;;;11.79;70.76
19096;BME280;9680;52.520;13.332;2023-05-20T03:39:09;102367.44;;;11.80;70.61
19096;BME280;9680;52.520;13.332;2023-05-20T03:41:36;102365.75;;;11.77;70.56
19096;BME280;9680;52.520;13.332;2023-05-20T03:44:03;102368.31;;;11.80;70.29
19096;BME280;9680;52.520;13.332;2023-05-20T03:46:30;102368.31;;;11.80;70.44
19096;BME280;9680;52.520;13.332;2023-05-20T03:48:58;102366.56;;;11.81;70.65
19096;BME280;9680;52.520;13.332;2023-05-20T03:51:27;102370.91;;;11.80;70.17
19096;BME280;9680;52.520;13.332;2023-05-20T03:54:01;102362.22;;;11.80;70.30
19096;BME280;9680;52.520;13.332;2023-05-20T03:56:27;102370.13;;;11.77;70.18
19096;BME280;9680;52.520;13.332;2023-05-20T03:58:54;102376.13;;;11.82;70.34
19096;BME280;9680;52.520;13.332;2023-05-20T04:01:21;102375.28;;;11.80;70.08
19096;BME280;9680;52.520;13.332;2023-05-20T04:03:50;102368.34;;;11.79;70.22
19096;BME280;9680;52.520;13.332;2023-05-20T04:06:17;102364.94;;;11.74;70.38
19096;BME280;9680;52.520;13.332;2023-05-20T04:08:45;102369.25;;;11.76;70.41
19096;BME280;9680;52.520;13.332;2023-05-20T04:11:12;102370.94;;;11.79;70.41
19096;BME280;9680;52.520;13.332;2023-05-20T04:13:39;102369.13;;;11.83;70.22
19096;BME280;9680;52.520;13.332;2023-05-20T04:16:06;102359.63;;;11.80;70.43
19096;BME280;9680;52.520;13.332;2023-05-20T04:18:33;102359.69;;;11.75;70.51
19096;BME280;9680;52.520;13.332;2023-05-20T04:21:03;102364.03;;;11.76;70.73
19096;BME280;9680;52.520;13.332;2023-05-20T04:23:30;102355.44;;;11.70;70.83
19096;BME280;9680;52.520;13.332;2023-05-20T04:25:59;102355.44;;;11.70;71.22
19096;BME280;9680;52.520;13.332;2023-05-20T04:28:29;102355.34;;;11.74;71.06
19096;BME280;9680;52.520;13.332;2023-05-20T04:31:00;102352.78;;;11.71;71.10
19096;BME280;9680;52.520;13.332;2023-05-20T04:33:28;102359.69;;;11.77;71.02
19096;BME280;9680;52.520;13.332;2023-05-20T04:35:55;102362.09;;;11.88;70.87
19096;BME280;9680;52.520;13.332;2023-05-20T04:38:23;102358.69;;;11.84;70.70
19096;BME280;9680;52.520;13.332;2023-05-20T04:40:54;102355.13;;;11.88;70.90
19096;BME280;9680;52.520;13.332;2023-05-20T04:43:24;102357.66;;;11.93;70.79
19096;BME280;9680;52.520;13.332;2023-05-20T04:45:54;102361.13;;;11.93;70.51
19096;BME280;9680;52.520;13.332;2023-05-20T04:48:21;102365.53;;;11.90;70.72
19096;BME280;9680;52.520;13.332;2023-05-20T04:50:50;102366.34;;;11.92;70.56
19096;BME280;9680;52.520;13.332;2023-05-20T04:53:18;102368.91;;;11.97;70.89
19096;BME280;9680;52.520;13.332;2023-05-20T04:55:46;102364.50;;;11.99;70.70
19096;BME280;9680;52.520;13.332;2023-05-20T04:58:14;102362.88;;;11.93;70.83
19096;BME280;9680;52.520;13.332;2023-05-20T05:00:44;102356.00;;;11.87;70.95
19096;BME280;9680;52.520;13.332;2023-05-20T05:03:11;102360.28;;;11.91;70.88
19096;BME280;9680;52.520;13.332;2023-05-20T05:05:38;102362.84;;;11.94;71.07
19096;BME280;9680;52.520;13.332;2023-05-20T05:08:07;102354.19;;;11.91;71.41
19096;BME280;9680;52.520;13.332;2023-05-20T05:10:40;102353.22;;;11.97;71.04
19096;BME280;9680;52.520;13.332;2023-05-20T05:13:08;102355.00;;;11.96;71.14
19096;BME280;9680;52.520;13.332;2023-05-20T05:15:35;102351.47;;;12.00;71.24
19096;BME280;9680;52.520;13.332;2023-05-20T05:18:06;102353.16;;;12.03;71.23
19096;BME280;9680;52.520;13.332;2023-05-20T05:20:34;102354.69;;;12.15;70.77
19096;BME280;9680;52.520;13.332;2023-05-20T05:23:01;102351.13;;;12.17;70.54
19096;BME280;9680;52.520;13.332;2023-05-20T05:25:28;102350.13;;;12.24;70.75
19096;BME280;9680;52.520;13.332;2023-05-20T05:27:57;102352.78;;;12.23;70.44
19096;BME280;9680;52.520;13.332;2023-05-20T05:30:24;102347.50;;;12.24;70.60
19096;BME280;9680;52.520;13.332;2023-05-20T05:32:51;102355.34;;;12.24;70.51
19096;BME280;9680;52.520;13.332;2023-05-20T05:35:19;102350.13;;;12.24;70.74
19096;BME280;9680;52.520;13.332;2023-05-20T05:37:46;102351.00;;;12.27;71.28
19096;BME280;9680;52.520;13.332;2023-05-20T05:40:13;102348.19;;;12.34;71.15
19096;BME280;9680;52.520;13.332;2023-05-20T05:42:41;102352.59;;;12.34;70.87
19096;BME280;9680;52.520;13.332;2023-05-20T05:45:09;102348.19;;;12.36;71.15
19096;BME280;9680;52.520;13.332;2023-05-20T05:47:36;102348.03;;;12.44;71.01
19096;BME280;9680;52.520;13.332;2023-05-20T05:50:03;102342.66;;;12.51;70.71
19096;BME280;9680;52.520;13.332;2023-05-20T05:52:35;102339.91;;;12.58;70.80
19096;BME280;9680;52.520;13.332;2023-05-20T05:55:03;102334.53;;;12.64;70.85
19096;BME280;9680;52.520;13.332;2023-05-20T05:57:30;102339.81;;;12.62;70.60
19096;BME280;9680;52.520;13.332;2023-05-20T05:59:58;102332.75;;;12.67;71.01
19096;BME280;9680;52.520;13.332;2023-05-20T06:02:26;102326.44;;;12.76;71.00
19096;BME280;9680;52.520;13.332;2023-05-20T06:04:53;102326.16;;;12.89;70.45
19096;BME280;9680;52.520;13.332;2023-05-20T06:07:22;102324.31;;;12.94;70.20
19096;BME280;9680;52.520;13.332;2023-05-20T06:09:51;102325.06;;;12.99;70.42
19096;BME280;9680;52.520;13.332;2023-05-20T06:12:18;102325.81;;;13.04;70.37
19096;BME280;9680;52.520;13.332;2023-05-20T06:14:46;102322.09;;;13.15;70.05
19096;BME280;9680;52.520;13.332;2023-05-20T06:17:13;102320.16;;;13.23;69.77
19096;BME280;9680;52.520;13.332;2023-05-20T06:19:40;102307.97;;;13.22;69.68
19096;BME280;9680;52.520;13.332;2023-05-20T06:22:07;102321.94;;;13.21;69.75
19096;BME280;9680;52.520;13.332;2023-05-20T06:24:34;102333.34;;;13.18;70.12
19096;BME280;9680;52.520;13.332;2023-05-20T06:27:03;102324.78;;;13.11;70.20
19096;BME280;9680;52.520;13.332;2023-05-20T06:29:30;102329.28;;;13.05;70.34
19096;BME280;9680;52.520;13.332;2023-05-20T06:31:57;102319.78;;;13.01;70.14
19096;BME280;9680;52.520;13.332;2023-05-20T06:34:25;102319.78;;;13.01;70.48
19096;BME280;9680;52.520;13.332;2023-05-20T06:36:52;102329.41;;;13.00;70.47
19096;BME280;9680;52.520;13.332;2023-05-20T06:39:18;102332.09;;;12.97;71.19
19096;BME280;9680;52.520;13.332;2023-05-20T06:41:45;102330.22;;;13.02;71.12
19096;BME280;9680;52.520;13.332;2023-05-20T06:44:25;102332.63;;;13.11;71.07
19096;BME280;9680;52.520;13.332;2023-05-20T06:47:08;102332.25;;;13.29;70.30
19096;BME280;9680;52.520;13.332;2023-05-20T06:49:35;102327.69;;;13.35;70.03
19096;BME280;9680;52.520;13.332;2023-05-20T06:52:03;102340.41;;;13.52;69.75
19096;BME280;9680;52.520;13.332;2023-05-20T06:54:31;102334.03;;;13.63;69.67
19096;BME280;9680;52.520;13.332;2023-05-20T06:57:18;102333.31;;;13.56;69.38
19096;BME280;9680;52.520;13.332;2023-05-20T07:00:02;102328.03;;;13.59;69.21
19096;BME280;9680;52.520;13.332;2023-05-20T07:02:32;102325.28;;;13.64;69.14
19096;BME280;9680;52.520;13.332;2023-05-20T07:04:58;102321.66;;;13.69;68.95
19096;BME280;9680;52.520;13.332;2023-05-20T07:07:25;102323.25;;;13.75;68.91
19096;BME280;9680;52.520;13.332;2023-05-20T07:09:53;102326.31;;;13.93;68.85
19096;BME280;9680;52.520;13.332;2023-05-20T07:12:20;102323.38;;;14.04;68.11
19096;BME280;9680;52.520;13.332;2023-05-20T07:14:47;102318.75;;;14.13;68.29
19096;BME280;9680;52.520;13.332;2023-05-20T07:17:15;102306.97;;;14.29;67.66
19096;BME280;9680;52.520;13.332;2023-05-20T07:19:44;102314.25;;;14.49;67.41
19096;BME280;9680;52.520;13.332;2023-05-20T07:22:10;102314.50;;;14.71;66.67
19096;BME280;9680;52.520;13.332;2023-05-20T07:24:50;102312.50;;;14.79;66.26
19096;BME280;9680;52.520;13.332;2023-05-20T07:27:17;102316.53;;;14.90;65.92
19096;BME280;9680;52.520;13.332;2023-05-20T07:29:44;102313.88;;;14.91;65.51
19096;BME280;9680;52.520;13.332;2023-05-20T07:32:11;102305.22;;;14.89;65.74
19096;BME280;9680;52.520;13.332;2023-05-20T07:34:39;102306.13;;;14.88;65.80
19096;BME280;9680;52.520;13.332;2023-05-20T07:37:05;102310.16;;;14.98;65.61
19096;BME280;9680;52.520;13.332;2023-05-20T07:39:34;102307.31;;;15.06;65.09
19096;BME280;9680;52.520;13.332;2023-05-20T07:42:01;102298.06;;;15.21;64.99
19096;BME280;9680;52.520;13.332;2023-05-20T07:44:29;102305.16;;;15.44;64.62
19096;BME280;9680;52.520;13.332;2023-05-20T07:46:56;102302.78;;;15.64;63.54
19096;BME280;9680;52.520;13.332;2023-05-20T07:49:23;102296.88;;;15.57;63.16
19096;BME280;9680;52.520;13.332;2023-05-20T07:51:52;102293.16;;;15.64;63.19
19096;BME280;9680;52.520;13.332;2023-05-20T07:54:19;102285.75;;;15.76;63.14
19096;BME280;9680;52.520;13.332;2023-05-20T07:56:48;102288.25;;;15.79;62.27
19096;BME280;9680;52.520;13.332;2023-05-20T07:59:16;102290.19;;;15.73;62.00
19096;BME280;9680;52.520;13.332;2023-05-20T08:01:46;102280.81;;;15.66;61.85
19096;BME280;9680;52.520;13.332;2023-05-20T08:04:15;102277.75;;;15.79;62.13
19096;BME280;9680;52.520;13.332;2023-05-20T08:06:43;102275.50;;;15.93;61.81
19096;BME280;9680;52.520;13.332;2023-05-20T08:09:18;102273.34;;;16.05;61.53
19096;BME280;9680;52.520;13.332;2023-05-20T08:11:49;102280.31;;;16.06;60.80
19096;BME280;9680;52.520;13.332;2023-05-20T08:14:16;102279.00;;;15.94;61.15
19096;BME280;9680;52.520;13.332;2023-05-20T08:16:46;102270.72;;;16.05;61.30
19096;BME280;9680;52.520;13.332;2023-05-20T08:19:14;102275.88;;;16.32;60.70
19096;BME280;9680;52.520;13.332;2023-05-20T08:21:40;102271.06;;;16.43;59.91
19096;BME280;9680;52.520;13.332;2023-05-20T08:24:07;102267.00;;;16.34;59.83
19096;BME280;9680;52.520;13.332;2023-05-20T08:26:36;102265.47;;;16.51;59.88
19096;BME280;9680;52.520;13.332;2023-05-20T08:29:04;102266.41;;;16.72;59.49
19096;BME280;9680;52.520;13.332;2023-05-20T08:31:32;102254.91;;;16.97;58.39
19096;BME280;9680;52.520;13.332;2023-05-20T08:34:00;102252.47;;;17.14;58.77
19096;BME280;9680;52.520;13.332;2023-05-20T08:36:27;102252.81;;;17.48;57.85
19096;BME280;9680;52.520;13.332;2023-05-20T08:38:54;102253.66;;;17.69;57.21
19096;BME280;9680;52.520;13.332;2023-05-20T08:41:21;102242.53;;;18.02;56.02
19096;BME280;9680;52.520;13.332;2023-05-20T08:43:51;102245.13;;;18.04;54.62
19096;BME280;9680;52.520;13.332;2023-05-20T08:46:20;102238.53;;;17.94;55.62
19096;BME280;9680;52.520;13.332;2023-05-20T08:48:48;102236.59;;;17.97;54.89
19096;BME280;9680;52.520;13.332;2023-05-20T08:51:17;102242.34;;;18.07;55.14
19096;BME280;9680;52.520;13.332;2023-05-20T08:53:46;102245.69;;;18.11;53.92
19096;BME280;9680;52.520;13.332;2023-05-20T08:56:13;102240.53;;;18.08;54.21
19096;BME280;9680;52.520;13.332;2023-05-20T08:58:42;102248.75;;;17.81;54.39
19096;BME280;9680;52.520;13.332;2023-05-20T09:01:12;102237.91;;;17.68;55.25
19096;BME280;9680;52.520;13.332;2023-05-20T09:03:39;102238.50;;;17.54;55.70
19096;BME280;9680;52.520;13.332;2023-05-20T09:06:07;102242.78;;;17.56;55.39
19096;BME280;9680;52.520;13.332;2023-05-20T09:08:34;102241.28;;;17.51;55.58
19096;BME280;9680;52.520;13.332;2023-05-20T09:11:01;102248.34;;;17.29;56.24
19096;BME280;9680;52.520;13.332;2023-05-20T09:13:29;102253.38;;;17.13;56.55
19096;BME280;9680;52.520;13.332;2023-05-20T09:15:58;102241.53;;;17.03;56.75
19096;BME280;9680;52.520;13.332;2023-05-20T09:18:27;102253.22;;;16.96;57.45
19096;BME280;9680;52.520;13.332;2023-05-20T09:20:54;102261.69;;;17.04;57.67
19096;BME280;9680;52.520;13.332;2023-05-20T09:23:21;102244.84;;;17.08;57.68
19096;BME280;9680;52.520;13.332;2023-05-20T09:25:50;102239.31;;;17.14;57.19
19096;BME280;9680;52.520;13.332;2023-05-20T09:28:18;102232.81;;;17.23;57.04
19096;BME280;9680;52.520;13.332;2023-05-20T09:30:47;102236.34;;;17.43;56.77
19096;BME280;9680;52.520;13.332;2023-05-20T09:33:14;102236.09;;;17.49;56.59
19096;BME280;9680;52.520;13.332;2023-05-20T09:35:43;102234.78;;;17.79;56.18
19096;BME280;9680;52.520;13.332;2023-05-20T09:38:10;102237.16;;;17.85;55.91
19096;BME280;9680;52.520;13.332;2023-05-20T09:40:37;102239.69;;;17.67;55.72
19096;BME280;9680;52.520;13.332;2023-05-20T09:43:06;102234.16;;;17.53;56.04
19096;BME280;9680;52.520;13.332;2023-05-20T09:45:33;102234.94;;;17.55;56.22
19096;BME280;9680;52.520;13.332;2023-05-20T09:48:01;102230.81;;;17.49;56.64
19096;BME280;9680;52.520;13.332;2023-05-20T09:50:28;102237.06;;;17.46;56.75
19096;BME280;9680;52.520;13.332;2023-05-20T09:53:01;102237.84;;;17.49;56.70
19096;BME280;9680;52.520;13.332;2023-05-20T09:55:29;102233.19;;;17.55;56.54
19096;BME280;9680;52.520;13.332;2023-05-20T09:58:01;102235.47;;;17.42;56.44
19096;BME280;9680;52.520;13.332;2023-05-20T10:00:28;102229.03;;;17.29;56.45
19096;BME280;9680;52.520;13.332;2023-05-20T10:02:56;102225.47;;;17.30;56.75
19096;BME280;9680;52.520;13.332;2023-05-20T10:05:26;102240.47;;;17.49;56.64
19096;BME280;9680;52.520;13.332;2023-05-20T10:08:31;102231.78;;;17.46;56.49
19096;BME280;9680;52.520;13.332;2023-05-20T10:11:11;102229.03;;;17.50;56.37
19096;BME280;9680;52.520;13.332;2023-05-20T10:14:04;102226.34;;;17.51;56.50
19096;BME280;9680;52.520;13.332;2023-05-20T10:16:40;102222.59;;;17.57;56.41
19096;BME280;9680;52.520;13.332;2023-05-20T10:19:14;102224.16;;;17.40;56.72
19096;BME280;9680;52.520;13.332;2023-05-20T10:21:55;102215.09;;;17.27;56.93
19096;BME280;9680;52.520;13.332;2023-05-20T10:24:30;102223.91;;;17.05;57.68
19096;BME280;9680;52.520;13.332;2023-05-20T10:26:58;102221.31;;;17.03;58.27
19096;BME280;9680;52.520;13.332;2023-05-20T10:29:27;102218.69;;;17.45;57.47
19096;BME280;9680;52.520;13.332;2023-05-20T10:31:54;102218.16;;;17.57;56.87
19096;BME280;9680;52.520;13.332;2023-05-20T10:34:21;102216.03;;;17.66;56.46
19096;BME280;9680;52.520;13.332;2023-05-20T10:36:59;102200.31;;;17.64;56.62
19096;BME280;9680;52.520;13.332;2023-05-20T10:39:29;102202.81;;;17.67;56.52
19096;BME280;9680;52.520;13.332;2023-05-20T10:42:05;102211.72;;;17.84;56.21
19096;BME280;9680;52.520;13.332;2023-05-20T10:44:40;102212.97;;;18.15;55.69
19096;BME280;9680;52.520;13.332;2023-05-20T10:47:09;102194.28;;;18.39;55.02
19096;BME280;9680;52.520;13.332;2023-05-20T10:49:40;102191.19;;;18.48;54.61
19096;BME280;9680;52.520;13.332;2023-05-20T10:52:09;102199.28;;;18.62;54.70
19096;BME280;9680;52.520;13.332;2023-05-20T10:54:43;102196.03;;;18.75;53.69
19096;BME280;9680;52.520;13.332;2023-05-20T10:57:10;102189.16;;;19.08;53.52
19096;BME280;9680;52.520;13.332;2023-05-20T10:59:37;102188.22;;;19.09;52.59
19096;BME280;9680;52.520;13.332;2023-05-20T11:02:04;102185.25;;;18.80;53.61
19096;BME280;9680;52.520;13.332;2023-05-20T11:04:31;102184.03;;;18.69;53.54
19096;BME280;9680;52.520;13.332;2023-05-20T11:06:58;102182.84;;;18.75;53.64
19096;BME280;9680;52.520;13.332;2023-05-20T11:09:25;102180.88;;;18.98;53.34
19096;BME280;9680;52.520;13.332;2023-05-20T11:11:54;102170.78;;;19.06;52.51
19096;BME280;9680;52.520;13.332;2023-05-20T11:14:20;102175.63;;;18.96;52.99
19096;BME280;9680;52.520;13.332;2023-05-20T11:16:50;102162.25;;;19.01;52.65
19096;BME280;9680;52.520;13.332;2023-05-20T11:19:18;102162.13;;;19.20;52.31
19096;BME280;9680;52.520;13.332;2023-05-20T11:21:46;102159.13;;;19.44;51.93
19096;BME280;9680;52.520;13.332;2023-05-20T11:24:13;102159.81;;;19.97;51.49
19096;BME280;9680;52.520;13.332;2023-05-20T11:26:40;102154.47;;;20.45;50.40
19096;BME280;9680;52.520;13.332;2023-05-20T11:29:08;102138.03;;;20.71;49.48
19096;BME280;9680;52.520;13.332;2023-05-20T11:31:36;102140.47;;;20.90;48.62
19096;BME280;9680;52.520;13.332;2023-05-20T11:34:04;102141.78;;;20.83;48.31
19096;BME280;9680;52.520;13.332;2023-05-20T11:36:30;102133.97;;;20.65;47.94
19096;BME280;9680;52.520;13.332;2023-05-20T11:38:58;102144.53;;;20.34;48.33
19096;BME280;9680;52.520;13.332;2023-05-20T11:41:26;102149.66;;;20.05;48.96
19096;BME280;9680;52.520;13.332;2023-05-20T11:43:56;102155.72;;;20.07;49.53
19096;BME280;9680;52.520;13.332;2023-05-20T11:46:25;102148.03;;;20.19;49.15
19096;BME280;9680;52.520;13.332;2023-05-20T11:48:52;102145.38;;;20.19;49.36
19096;BME280;9680;52.520;13.332;2023-05-20T11:51:22;102144.19;;;20.41;48.38
19096;BME280;9680;52.520;13.332;2023-05-20T11:53:50;102140.41;;;20.45;48.51
19096;BME280;9680;52.520;13.332;2023-05-20T11:56:17;102145.53;;;20.48;48.67
19096;BME280;9680;52.520;13.332;2023-05-20T11:58:44;102133.81;;;20.52;48.71
19096;BME280;9680;52.520;13.332;2023-05-20T12:01:11;102139.69;;;20.57;48.10
19096;BME280;9680;52.520;13.332;2023-05-20T12:03:53;102133.63;;;20.25;48.56
19096;BME280;9680;52.520;13.332;2023-05-20T12:06:20;102131.91;;;20.07;48.98
19096;BME280;9680;52.520;13.332;2023-05-20T12:08:47;102135.09;;;20.14;49.54
19096;BME280;9680;52.520;13.332;2023-05-20T12:11:13;102115.03;;;19.94;49.38
19096;BME280;9680;52.520;13.332;2023-05-20T12:13:40;102116.38;;;19.53;50.31
19096;BME280;9680;52.520;13.332;2023-05-20T12:16:07;102117.03;;;19.41;50.82
19096;BME280;9680;52.520;13.332;2023-05-20T12:18:34;102117.03;;;19.41;50.86
19096;BME280;9680;52.520;13.332;2023-05-20T12:21:03;102111.53;;;19.28;51.17
19096;BME280;9680;52.520;13.332;2023-05-20T12:23:30;102109.88;;;19.09;51.56
19096;BME280;9680;52.520;13.332;2023-05-20T12:25:58;102109.56;;;18.80;52.82
19096;BME280;9680;52.520;13.332;2023-05-20T12:28:25;102109.22;;;18.86;52.71
19096;BME280;9680;52.520;13.332;2023-05-20T12:30:52;102108.09;;;18.74;52.95
19096;BME280;9680;52.520;13.332;2023-05-20T12:33:19;102101.31;;;18.86;53.35
19096;BME280;9680;52.520;13.332;2023-05-20T12:35:46;102098.69;;;18.86;53.22
19096;BME280;9680;52.520;13.332;2023-05-20T12:38:14;102094.09;;;19.08;52.64
19096;BME280;9680;52.520;13.332;2023-05-20T12:40:46;102083.22;;;19.14;52.53
19096;BME280;9680;52.520;13.332;2023-05-20T12:43:19;102086.00;;;19.28;52.44
19096;BME280;9680;52.520;13.332;2023-05-20T12:45:49;102093.44;;;19.20;52.17
19096;BME280;9680;52.520;13.332;2023-05-20T12:48:16;102083.63;;;19.06;52.63
19096;BME280;9680;52.520;13.332;2023-05-20T12:50:43;102079.44;;;19.02;52.69
19096;BME280;9680;52.520;13.332;2023-05-20T12:53:10;102076.06;;;19.16;52.91
19096;BME280;9680;52.520;13.332;2023-05-20T12:55:38;102067.75;;;19.40;52.18
19096;BME280;9680;52.520;13.332;2023-05-20T12:58:05;102057.88;;;19.59;51.48